createdAt,value
2023-04-26T00:01:59.172Z,6.94
2023-04-26T00:04:29.653Z,6.90
2023-04-26T00:06:57.500Z,6.86
2023-04-26T00:09:24.543Z,6.82
2023-04-26T00:11:51.975Z,6.78
2023-04-26T00:14:19.008Z,6.73
2023-04-26T00:16:46.445Z,6.68
2023-04-26T00:19:13.579Z,6.62
2023-04-26T00:21:40.754Z,6.59
2023-04-26T00:24:08.143Z,6.53
2023-04-26T00:26:35.641Z,6.47
2023-04-26T00:36:42.958Z,6.49
2023-04-26T00:39:10.611Z,6.41
2023-04-26T00:41:37.737Z,6.30
2023-04-26T00:44:05.091Z,6.26
2023-04-26T00:46:32.161Z,6.25
2023-04-26T00:48:59.150Z,6.30
2023-04-26T00:51:27.383Z,6.36
2023-04-26T00:53:54.841Z,6.44
2023-04-26T00:56:21.983Z,6.48
2023-04-26T00:58:49.134Z,6.51
2023-04-26T01:01:16.326Z,6.54
2023-04-26T01:03:45.954Z,6.57
2023-04-26T01:06:13.209Z,6.59
2023-04-26T01:08:40.320Z,6.57
2023-04-26T01:11:07.516Z,6.52
2023-04-26T01:13:34.637Z,6.49
2023-04-26T01:16:01.764Z,6.49
2023-04-26T01:18:29.141Z,6.50
2023-04-26T01:20:57.204Z,6.53
2023-04-26T01:23:24.257Z,6.55
2023-04-26T01:25:51.302Z,6.55
2023-04-26T01:28:18.308Z,6.58
2023-04-26T01:30:45.951Z,6.61
2023-04-26T01:33:13.052Z,6.64
2023-04-26T01:35:40.162Z,6.68
2023-04-26T01:38:07.276Z,6.71
2023-04-26T01:40:34.390Z,6.74
2023-04-26T01:43:03.444Z,6.73
2023-04-26T01:45:31.237Z,6.72
2023-04-26T01:48:17.338Z,6.70
2023-04-26T01:50:44.451Z,6.66
2023-04-26T01:53:13.604Z,6.62
2023-04-26T01:55:41.896Z,6.56
2023-04-26T01:58:09.840Z,6.49
2023-04-26T02:00:36.913Z,6.44
2023-04-26T02:03:04.551Z,6.41
2023-04-26T02:05:31.724Z,6.39
2023-04-26T02:07:58.801Z,6.37
2023-04-26T02:10:25.951Z,6.34
2023-04-26T02:12:53.025Z,6.31
2023-04-26T02:15:20.244Z,6.29
2023-04-26T02:17:47.290Z,6.27
2023-04-26T02:20:14.469Z,6.25
2023-04-26T02:22:41.449Z,6.22
2023-04-26T02:25:08.975Z,6.18
2023-04-26T02:27:36.021Z,6.15
2023-04-26T02:30:03.348Z,6.08
2023-04-26T02:32:31.371Z,6.02
2023-04-26T02:34:58.481Z,5.97
2023-04-26T02:37:25.622Z,5.93
2023-04-26T02:39:52.805Z,5.87
2023-04-26T02:42:20.230Z,5.81
2023-04-26T02:44:47.342Z,5.75
2023-04-26T02:47:14.472Z,5.69
2023-04-26T02:49:41.493Z,5.62
2023-04-26T02:52:08.547Z,5.60
2023-04-26T02:54:35.745Z,5.63
2023-04-26T02:57:02.877Z,5.64
2023-04-26T02:59:30.003Z,5.67
2023-04-26T03:01:57.112Z,5.74
2023-04-26T03:04:24.339Z,5.81
2023-04-26T03:06:51.416Z,5.84
2023-04-26T03:09:18.552Z,5.86
2023-04-26T03:11:46.847Z,5.88
2023-04-26T03:14:15.401Z,5.88
2023-04-26T03:16:43.259Z,5.93
2023-04-26T03:19:10.477Z,5.98
2023-04-26T03:21:38.176Z,6.07
2023-04-26T03:24:05.573Z,6.28
2023-04-26T03:26:32.536Z,6.54
2023-04-26T03:28:59.945Z,6.79
2023-04-26T03:31:27.611Z,7.07
2023-04-26T03:33:54.852Z,7.45
2023-04-26T03:36:21.955Z,7.99
2023-04-26T03:38:49.082Z,8.62
2023-04-26T03:41:17.042Z,9.25
2023-04-26T03:43:44.240Z,9.83
2023-04-26T03:46:11.301Z,10.43
2023-04-26T03:48:38.487Z,11.06
2023-04-26T03:51:06.394Z,11.70
2023-04-26T03:53:33.542Z,12.38
2023-04-26T03:56:00.881Z,12.97
2023-04-26T03:58:28.164Z,13.49
2023-04-26T04:01:01.423Z,14.03
2023-04-26T04:03:30.714Z,14.53
2023-04-26T04:05:58.016Z,14.93
2023-04-26T04:08:25.044Z,15.30
2023-04-26T04:10:52.140Z,15.67
2023-04-26T04:13:19.725Z,16.06
2023-04-26T04:15:47.508Z,16.38
2023-04-26T04:18:14.538Z,16.68
2023-04-26T04:20:42.100Z,16.95
2023-04-26T04:23:10.352Z,16.88
2023-04-26T04:25:39.380Z,16.94
2023-04-26T04:28:09.402Z,17.29
2023-04-26T04:30:37.134Z,17.60
2023-04-26T04:33:05.639Z,17.94
2023-04-26T04:35:34.440Z,18.13
2023-04-26T04:38:04.566Z,18.51
2023-04-26T04:40:32.299Z,18.95
2023-04-26T04:43:01.284Z,19.26
2023-04-26T04:45:29.730Z,19.43
2023-04-26T04:47:58.399Z,19.47
2023-04-26T04:50:26.802Z,19.38
2023-04-26T04:52:54.096Z,19.32
2023-04-26T04:55:21.812Z,19.16
2023-04-26T04:57:48.897Z,18.98
2023-04-26T05:00:16.786Z,18.95
2023-04-26T05:02:48.328Z,18.89
2023-04-26T05:05:16.350Z,18.83
2023-04-26T05:07:43.639Z,18.65
2023-04-26T05:10:11.720Z,18.38
2023-04-26T05:12:39.008Z,18.33
2023-04-26T05:15:08.052Z,18.30
2023-04-26T05:17:35.172Z,18.33
2023-04-26T05:20:11.906Z,18.51
2023-04-26T05:22:40.206Z,18.39
2023-04-26T05:25:08.763Z,18.26
2023-04-26T05:27:37.852Z,18.33
2023-04-26T05:30:15.882Z,18.34
2023-04-26T05:32:50.752Z,18.25
2023-04-26T05:35:41.771Z,18.20
2023-04-26T05:38:09.266Z,18.17
2023-04-26T05:40:37.482Z,18.22
2023-04-26T05:43:05.386Z,18.37
2023-04-26T05:45:32.819Z,18.19
2023-04-26T05:48:01.355Z,17.66
2023-04-26T05:50:28.433Z,17.05
2023-04-26T05:52:56.013Z,16.53
2023-04-26T05:55:23.018Z,16.14
2023-04-26T05:57:50.378Z,15.87
2023-04-26T06:00:19.644Z,15.68
2023-04-26T06:02:47.393Z,15.67
2023-04-26T06:05:17.723Z,15.76
2023-04-26T06:07:45.028Z,15.80
2023-04-26T06:10:13.504Z,15.81
2023-04-26T06:12:41.618Z,15.90
2023-04-26T06:15:09.700Z,16.00
2023-04-26T06:17:38.147Z,15.98
2023-04-26T06:20:06.015Z,16.10
2023-04-26T06:22:33.030Z,16.28
2023-04-26T06:25:00.328Z,16.31
2023-04-26T06:27:27.460Z,16.23
2023-04-26T06:29:54.630Z,16.09
2023-04-26T06:32:22.689Z,16.00
2023-04-26T06:34:50.090Z,16.00
2023-04-26T06:37:17.132Z,15.98
2023-04-26T06:39:44.367Z,15.91
2023-04-26T06:42:11.848Z,15.83
2023-04-26T06:44:59.176Z,15.75
2023-04-26T06:47:26.257Z,15.73
2023-04-26T06:49:55.632Z,15.76
2023-04-26T06:52:22.763Z,15.80
2023-04-26T06:54:56.712Z,15.77
2023-04-26T06:57:24.886Z,15.63
2023-04-26T06:59:52.061Z,15.48
2023-04-26T07:02:19.429Z,15.50
2023-04-26T07:04:47.558Z,15.57
2023-04-26T07:07:15.868Z,15.63
2023-04-26T07:09:43.637Z,15.75
2023-04-26T07:12:14.017Z,15.84
2023-04-26T07:14:41.628Z,16.01
2023-04-26T07:17:09.478Z,16.19
2023-04-26T07:19:37.266Z,16.39
2023-04-26T07:22:05.020Z,16.47
2023-04-26T07:24:32.145Z,16.48
2023-04-26T07:26:59.289Z,16.53
2023-04-26T07:29:26.387Z,16.67
2023-04-26T07:31:53.899Z,16.87
2023-04-26T07:34:21.400Z,17.05
2023-04-26T07:36:48.525Z,17.15
2023-04-26T07:39:16.057Z,17.20
2023-04-26T07:41:44.170Z,17.19
2023-04-26T07:44:11.686Z,17.23
2023-04-26T07:46:38.787Z,17.32
2023-04-26T07:49:06.102Z,17.38
2023-04-26T07:51:33.583Z,17.50
2023-04-26T07:54:00.833Z,17.58
2023-04-26T07:56:27.857Z,17.56
2023-04-26T07:58:54.824Z,17.62
2023-04-26T08:01:22.095Z,17.78
2023-04-26T08:03:49.500Z,17.78
2023-04-26T08:06:17.392Z,17.73
2023-04-26T08:08:49.502Z,17.85
2023-04-26T08:11:17.215Z,17.98
2023-04-26T08:13:44.295Z,18.04
2023-04-26T08:16:11.295Z,18.03
2023-04-26T08:18:38.354Z,18.02
2023-04-26T08:21:05.448Z,17.95
2023-04-26T08:23:36.720Z,17.85
2023-04-26T08:26:04.086Z,17.82
2023-04-26T08:28:31.747Z,17.91
2023-04-26T08:30:58.985Z,18.10
2023-04-26T08:33:26.384Z,18.23
2023-04-26T08:35:53.589Z,18.26
2023-04-26T08:38:22.928Z,18.22
2023-04-26T08:40:50.217Z,18.25
2023-04-26T08:43:20.111Z,18.32
2023-04-26T08:45:47.541Z,18.40
2023-04-26T08:48:18.605Z,18.38
2023-04-26T08:50:49.080Z,18.43
2023-04-26T08:53:19.604Z,18.53
2023-04-26T08:55:49.873Z,18.65
2023-04-26T08:58:20.024Z,18.74
2023-04-26T09:00:47.181Z,18.91
2023-04-26T09:03:14.904Z,19.09
2023-04-26T09:05:45.389Z,19.21
2023-04-26T09:08:16.258Z,19.19
2023-04-26T09:12:25.528Z,19.13
2023-04-26T09:14:53.345Z,19.00
2023-04-26T09:17:31.379Z,19.04
2023-04-26T09:19:59.331Z,19.14
2023-04-26T09:22:29.872Z,19.31
2023-04-26T09:24:56.912Z,19.39
2023-04-26T09:27:32.674Z,19.39
2023-04-26T09:30:17.816Z,19.46
2023-04-26T09:32:47.912Z,19.40
2023-04-26T09:35:34.911Z,19.46
2023-04-26T09:38:12.782Z,19.61
2023-04-26T09:40:44.761Z,19.73
2023-04-26T09:43:13.522Z,19.80
2023-04-26T09:45:51.195Z,19.89
2023-04-26T09:48:26.306Z,19.96
2023-04-26T09:50:54.904Z,19.98
2023-04-26T09:53:37.400Z,19.95
2023-04-26T09:56:12.216Z,19.99
2023-04-26T09:58:52.754Z,20.06
2023-04-26T10:01:20.609Z,20.10
2023-04-26T10:03:47.862Z,20.18
2023-04-26T10:06:15.732Z,20.30
2023-04-26T10:08:43.217Z,20.30
2023-04-26T10:11:14.152Z,20.27
2023-04-26T10:13:41.868Z,20.28
2023-04-26T10:16:10.541Z,20.26
2023-04-26T10:18:37.766Z,20.30
2023-04-26T10:21:37.443Z,20.43
2023-04-26T10:24:04.846Z,20.50
2023-04-26T10:26:57.037Z,20.58
2023-04-26T10:29:24.990Z,20.65
2023-04-26T10:32:05.760Z,20.58
2023-04-26T10:34:33.882Z,20.63
2023-04-26T10:37:14.303Z,20.61
2023-04-26T10:39:44.742Z,20.57
2023-04-26T10:42:26.078Z,20.64
2023-04-26T10:44:58.879Z,20.79
2023-04-26T10:47:34.745Z,20.84
2023-04-26T10:50:09.040Z,20.69
2023-04-26T10:53:02.212Z,20.62
2023-04-26T10:55:55.893Z,20.51
2023-04-26T10:58:33.142Z,20.45
2023-04-26T11:01:13.613Z,20.53
2023-04-26T11:03:46.009Z,20.64
2023-04-26T11:13:41.654Z,20.45
2023-04-26T11:16:09.734Z,20.31
2023-04-26T11:18:38.955Z,20.36
2023-04-26T11:21:06.776Z,20.50
2023-04-26T11:23:33.944Z,20.56
2023-04-26T11:26:04.285Z,20.66
2023-04-26T11:28:34.064Z,20.85
2023-04-26T11:31:03.210Z,21.03
2023-04-26T11:33:30.401Z,21.08
2023-04-26T11:35:57.917Z,20.95
2023-04-26T11:38:25.713Z,20.94
2023-04-26T11:41:03.426Z,20.96
2023-04-26T11:43:40.121Z,21.07
2023-04-26T11:46:08.428Z,21.03
2023-04-26T11:48:36.951Z,20.92
2023-04-26T11:51:05.053Z,20.70
2023-04-26T11:53:39.574Z,20.59
2023-04-26T11:56:17.403Z,20.59
2023-04-26T11:58:48.702Z,20.58
2023-04-26T12:01:23.832Z,20.50
2023-04-26T12:03:55.745Z,20.46
2023-04-26T12:06:46.638Z,20.48
2023-04-26T12:09:13.908Z,20.48
2023-04-26T12:11:41.040Z,20.39
2023-04-26T12:14:10.206Z,20.37
2023-04-26T12:16:37.684Z,20.35
2023-04-26T12:19:06.183Z,20.35
2023-04-26T12:21:41.728Z,20.32
2023-04-26T12:24:08.871Z,20.18
2023-04-26T12:26:44.536Z,20.12
2023-04-26T12:29:11.668Z,20.02
2023-04-26T12:31:38.742Z,20.06
2023-04-26T12:34:06.040Z,20.15
2023-04-26T12:36:33.530Z,20.07
2023-04-26T12:39:03.916Z,19.88
2023-04-26T12:41:31.314Z,19.73
2023-04-26T12:43:58.830Z,19.69
2023-04-26T12:46:26.444Z,19.66
2023-04-26T12:48:53.667Z,19.59
2023-04-26T12:51:20.728Z,19.53
2023-04-26T12:53:47.716Z,19.44
2023-04-26T12:56:16.612Z,19.33
2023-04-26T12:58:43.599Z,19.26
2023-04-26T13:01:12.452Z,19.25
2023-04-26T13:03:40.201Z,19.29
2023-04-26T13:06:07.621Z,19.35
2023-04-26T13:08:34.742Z,19.40
2023-04-26T13:11:01.750Z,19.49
2023-04-26T13:13:39.904Z,19.54
2023-04-26T13:16:10.729Z,19.48
2023-04-26T13:18:37.853Z,19.37
2023-04-26T13:21:05.282Z,19.29
2023-04-26T13:23:32.353Z,19.15
2023-04-26T13:25:59.407Z,19.05
2023-04-26T13:28:27.480Z,19.06
2023-04-26T13:30:56.201Z,19.04
2023-04-26T13:33:23.413Z,19.03
2023-04-26T13:35:50.904Z,19.04
2023-04-26T13:38:18.114Z,19.14
2023-04-26T13:40:45.383Z,19.34
2023-04-26T13:43:13.438Z,19.55
2023-04-26T13:45:40.864Z,19.71
2023-04-26T13:48:09.223Z,19.77
2023-04-26T13:50:37.638Z,19.82
2023-04-26T13:53:04.814Z,19.94
2023-04-26T13:55:32.105Z,20.01
2023-04-26T13:57:59.553Z,20.05
2023-04-26T14:00:27.329Z,20.05
2023-04-26T14:02:54.456Z,20.11
2023-04-26T14:05:22.052Z,20.15
2023-04-26T14:07:49.239Z,20.19
2023-04-26T14:10:16.300Z,20.22
2023-04-26T14:12:43.445Z,20.17
2023-04-26T14:15:11.043Z,20.19
2023-04-26T14:17:38.224Z,20.21
2023-04-26T14:20:07.008Z,20.20
2023-04-26T14:22:34.298Z,20.17
2023-04-26T14:25:01.340Z,20.06
2023-04-26T14:27:28.431Z,19.94
2023-04-26T14:29:55.986Z,19.82
2023-04-26T14:32:23.396Z,19.81
2023-04-26T14:34:50.504Z,19.85
2023-04-26T14:37:18.022Z,19.90
2023-04-26T14:39:45.183Z,19.91
2023-04-26T14:42:12.546Z,19.90
2023-04-26T14:44:39.976Z,19.84
2023-04-26T14:47:08.181Z,19.82
2023-04-26T14:49:36.015Z,19.80
2023-04-26T14:52:04.337Z,19.71
2023-04-26T14:54:31.560Z,19.66
2023-04-26T14:56:58.512Z,19.59
2023-04-26T14:59:25.763Z,19.49
2023-04-26T15:01:53.537Z,19.41
2023-04-26T15:04:20.720Z,19.36
2023-04-26T15:06:47.883Z,19.31
2023-04-26T15:09:15.100Z,19.27
2023-04-26T15:11:42.186Z,19.25
2023-04-26T15:14:09.198Z,19.22
2023-04-26T15:16:36.367Z,19.14
2023-04-26T15:19:03.431Z,19.05
2023-04-26T15:21:31.648Z,18.94
2023-04-26T15:23:58.734Z,18.76
2023-04-26T15:26:26.227Z,18.61
2023-04-26T15:28:53.221Z,18.43
2023-04-26T15:31:21.008Z,18.27
2023-04-26T15:33:48.439Z,18.15
2023-04-26T15:36:16.999Z,18.07
2023-04-26T15:38:45.581Z,18.01
2023-04-26T15:41:12.632Z,17.91
2023-04-26T15:43:39.632Z,17.82
2023-04-26T15:46:06.686Z,17.73
2023-04-26T15:48:33.693Z,17.64
2023-04-26T15:51:05.114Z,17.53
2023-04-26T15:53:32.180Z,17.42
2023-04-26T15:55:59.309Z,17.31
2023-04-26T15:58:26.561Z,17.22
2023-04-26T16:00:53.623Z,17.14
2023-04-26T16:03:21.435Z,17.06
2023-04-26T16:05:48.995Z,16.98
2023-04-26T16:08:24.554Z,16.89
2023-04-26T16:11:01.541Z,16.79
2023-04-26T16:13:28.880Z,16.71
2023-04-26T16:15:56.145Z,16.61
2023-04-26T16:18:23.233Z,16.50
2023-04-26T16:20:50.296Z,16.40
2023-04-26T16:23:18.025Z,16.29
2023-04-26T16:25:45.245Z,16.19
2023-04-26T16:28:12.332Z,16.10
2023-04-26T16:30:39.585Z,16.00
2023-04-26T16:33:10.216Z,15.90
2023-04-26T16:35:37.430Z,15.80
2023-04-26T16:38:04.441Z,15.71
2023-04-26T16:40:31.422Z,15.61
2023-04-26T16:42:58.524Z,15.55
2023-04-26T16:45:26.444Z,15.48
2023-04-26T16:47:53.476Z,15.43
2023-04-26T16:50:21.148Z,15.38
2023-04-26T16:52:48.127Z,15.31
2023-04-26T16:55:15.206Z,15.25
2023-04-26T16:57:42.415Z,15.18
2023-04-26T17:00:11.859Z,15.12
2023-04-26T17:02:40.916Z,15.07
2023-04-26T17:05:10.220Z,15.03
2023-04-26T17:07:37.510Z,14.97
2023-04-26T17:10:04.996Z,14.91
2023-04-26T17:12:32.080Z,14.86
2023-04-26T17:14:59.060Z,14.82
2023-04-26T17:17:26.905Z,14.78
2023-04-26T17:19:54.041Z,14.72
2023-04-26T17:22:21.673Z,14.64
2023-04-26T17:24:48.660Z,14.56
2023-04-26T17:27:15.674Z,14.48
2023-04-26T17:29:44.406Z,14.40
2023-04-26T17:32:11.514Z,14.32
2023-04-26T17:34:39.053Z,14.22
2023-04-26T17:37:06.186Z,14.14
2023-04-26T17:39:33.232Z,14.07
2023-04-26T17:42:00.281Z,14.00
2023-04-26T17:44:27.658Z,13.94
2023-04-26T17:46:54.857Z,13.87
2023-04-26T17:49:26.153Z,13.80
2023-04-26T17:51:53.331Z,13.70
2023-04-26T17:54:20.531Z,13.58
2023-04-26T17:56:47.708Z,13.47
2023-04-26T17:59:14.759Z,13.39
2023-04-26T18:01:42.014Z,13.33
2023-04-26T18:04:09.218Z,13.28
2023-04-26T18:06:38.050Z,13.24
2023-04-26T18:09:05.275Z,13.19
2023-04-26T18:11:32.402Z,13.17
2023-04-26T18:13:59.477Z,13.16
2023-04-26T18:16:26.982Z,13.16
2023-04-26T18:18:54.211Z,13.18
2023-04-26T18:21:21.288Z,13.19
2023-04-26T18:23:48.791Z,13.19
2023-04-26T18:26:15.865Z,13.18
2023-04-26T18:28:45.090Z,13.18
2023-04-26T18:31:12.114Z,13.14
2023-04-26T18:33:39.284Z,13.03
2023-04-26T18:36:08.618Z,12.93
2023-04-26T18:38:35.728Z,12.83
2023-04-26T18:41:02.762Z,12.74
2023-04-26T18:43:29.820Z,12.70
2023-04-26T18:45:56.836Z,12.70
2023-04-26T18:48:23.823Z,12.70
2023-04-26T18:50:54.778Z,12.70
2023-04-26T18:53:22.420Z,12.67
2023-04-26T18:55:52.253Z,12.63
2023-04-26T18:58:19.381Z,12.58
2023-04-26T19:00:46.564Z,12.54
2023-04-26T19:03:13.744Z,12.52
2023-04-26T19:05:42.272Z,12.49
2023-04-26T19:08:09.557Z,12.47
2023-04-26T19:10:36.560Z,12.47
2023-04-26T19:13:03.639Z,12.48
2023-04-26T19:15:30.790Z,12.49
2023-04-26T19:17:58.672Z,12.50
2023-04-26T19:20:27.014Z,12.49
2023-04-26T19:22:55.116Z,12.49
2023-04-26T19:25:23.340Z,12.49
2023-04-26T19:27:50.740Z,12.48
2023-04-26T19:30:17.820Z,12.43
2023-04-26T19:32:44.910Z,12.39
2023-04-26T19:35:12.027Z,12.37
2023-04-26T19:37:39.212Z,12.38
2023-04-26T19:40:07.637Z,12.37
2023-04-26T19:42:34.685Z,12.36
2023-04-26T19:45:01.694Z,12.34
2023-04-26T19:47:28.737Z,12.33
2023-04-26T19:49:57.479Z,12.31
2023-04-26T19:52:24.473Z,12.34
2023-04-26T19:54:54.699Z,12.37
2023-04-26T19:57:22.216Z,12.38
2023-04-26T19:59:49.374Z,12.39
2023-04-26T20:02:16.828Z,12.38
2023-04-26T20:04:44.767Z,12.39
2023-04-26T20:07:11.810Z,12.42
2023-04-26T20:09:38.903Z,12.47
2023-04-26T20:12:06.203Z,12.50
2023-04-26T20:14:33.810Z,12.52
2023-04-26T20:17:02.555Z,12.50
2023-04-26T20:19:29.897Z,12.48
2023-04-26T20:21:56.960Z,12.43
2023-04-26T20:24:29.937Z,12.39
2023-04-26T20:26:56.956Z,12.35
2023-04-26T20:29:24.179Z,12.30
2023-04-26T20:31:51.535Z,12.25
2023-04-26T20:34:18.596Z,12.22
2023-04-26T20:36:45.604Z,12.16
2023-04-26T20:39:12.582Z,12.12
2023-04-26T20:41:39.976Z,12.06
2023-04-26T20:44:07.199Z,12.00
2023-04-26T20:46:35.393Z,11.98
2023-04-26T20:49:03.156Z,11.93
2023-04-26T20:51:30.181Z,11.84
2023-04-26T20:53:57.152Z,11.78
2023-04-26T20:56:24.120Z,11.68
2023-04-26T20:58:51.113Z,11.57
2023-04-26T21:01:18.152Z,11.48
2023-04-26T21:03:45.557Z,11.36
2023-04-26T21:06:12.705Z,11.24
2023-04-26T21:08:40.708Z,11.16
2023-04-26T21:11:07.685Z,11.10
2023-04-26T21:13:34.731Z,11.08
2023-04-26T21:16:03.021Z,11.05
2023-04-26T21:18:30.345Z,11.01
2023-04-26T21:20:57.346Z,10.96
2023-04-26T21:23:24.294Z,10.88
2023-04-26T21:25:51.264Z,10.79
2023-04-26T21:29:57.254Z,10.72
2023-04-26T21:32:24.388Z,10.61
2023-04-26T21:34:51.818Z,10.55
2023-04-26T21:37:18.793Z,10.45
2023-04-26T21:39:45.822Z,10.34
2023-04-26T21:42:12.921Z,10.26
2023-04-26T21:44:40.069Z,10.18
2023-04-26T21:47:07.142Z,10.15
2023-04-26T21:49:35.356Z,10.16
2023-04-26T21:52:02.321Z,10.15
2023-04-26T21:54:29.363Z,10.14
2023-04-26T21:56:56.445Z,10.14
2023-04-26T21:59:23.493Z,10.13
2023-04-26T22:01:51.244Z,10.13
2023-04-26T22:04:18.654Z,10.14
2023-04-26T22:06:45.930Z,10.17
2023-04-26T22:09:13.143Z,10.18
2023-04-26T22:11:40.809Z,10.20
2023-04-26T22:14:07.865Z,10.20
2023-04-26T22:16:35.018Z,10.21
2023-04-26T22:19:02.089Z,10.20
2023-04-26T22:21:29.722Z,10.19
2023-04-26T22:23:56.789Z,10.19
2023-04-26T22:26:24.018Z,10.20
2023-04-26T22:28:51.080Z,10.22
2023-04-26T22:31:18.130Z,10.25
2023-04-26T22:33:45.186Z,10.30
2023-04-26T22:36:12.289Z,10.34
2023-04-26T22:38:39.982Z,10.36
2023-04-26T22:41:07.557Z,10.36
2023-04-26T22:43:35.183Z,10.39
2023-04-26T22:46:02.388Z,10.40
2023-04-26T22:48:29.604Z,10.41
2023-04-26T22:50:57.038Z,10.44
2023-04-26T22:53:24.029Z,10.47
2023-04-26T22:55:52.050Z,10.49
2023-04-26T22:58:19.189Z,10.49
2023-04-26T23:00:46.167Z,10.48
2023-04-26T23:03:13.595Z,10.50
2023-04-26T23:05:40.815Z,10.52
2023-04-26T23:08:07.968Z,10.53
2023-04-26T23:10:35.024Z,10.53
2023-04-26T23:13:02.074Z,10.53
2023-04-26T23:15:29.158Z,10.52
2023-04-26T23:17:56.272Z,10.51
2023-04-26T23:20:24.183Z,10.50
2023-04-26T23:22:51.622Z,10.52
2023-04-26T23:25:20.121Z,10.54
2023-04-26T23:27:47.552Z,10.57
2023-04-26T23:30:15.487Z,10.59
2023-04-26T23:32:42.476Z,10.62
2023-04-26T23:35:09.794Z,10.66
2023-04-26T23:37:36.948Z,10.69
2023-04-26T23:40:06.580Z,10.71
2023-04-26T23:42:33.605Z,10.73
2023-04-26T23:45:00.828Z,10.75
2023-04-26T23:47:28.007Z,10.76
2023-04-26T23:49:55.067Z,10.78
2023-04-26T23:52:22.215Z,10.81
2023-04-26T23:54:49.262Z,10.83
2023-04-26T23:57:16.310Z,10.87
2023-04-26T23:59:43.306Z,10.90
